Terminal Aerodrome Forecast
Issued by NWS

Home | Current Version | Previous Version | Text Only | Print | Product List | Glossary Off
Versions: 1 2 3 4 5 6 7 8 9 10 11 12 13 14 15 16 17

000
FTUS43 KTOP 302300
TAFMHK
TAF
KMHK 302324Z 3100/3124 02004KT P6SM BKN025 OVC035
     FM310700 04005KT 5SM BR SCT009 OVC012
     FM311400 07006KT P6SM SCT018
     FM311700 09007KT P6SM FEW040=

USA.gov is the U.S. government's official web portal to all federal, state and local government web resources and services.